Main page
METAR-TAF:

METAR-TAF

Airports :

Luena Airport

Luena, Angola

latitude: 11-46-05S, longitude: 19-53-50E, elevation: 1329 m

Current weather observation

The report was made 6 hours and 56 minutes ago, at 16:00 UTC
Wind 3 kt from variable directions
Temperature 23°C
Humidity 78%
Pressure 1017 hPa
Visibility 10 km or more
no clouds below 1500 m and no cumulonimbus

METAR: FNUE 191600Z VRB03KT CAVOK 23/19 Q1017

Time: 23:56 (22:56 UTC)

Forecast

The report was made 12 hours and 11 minutes ago, at 10:45 UTC
Forecast valid from 19 at 12 UTC to 19 at 24 UTC
Wind 7 kt from the East/Northeast
Visibility 10 km or more
Scattered clouds at a height of 3000 ft
Broken clouds at a height of 4000 ft
Probability 30% :
Temporary
from 19 at 14 UTC to 19 at 18 UTC
Wind 6 kt from the East/Southeast
Visibility: 5000 m
Broken clouds at a height of 2200 ft
Few clouds at a height of 2500 ft, Cumulonimbus.
thunderstorm, light rain

TAF: FNUE 191045Z 1912/1924 07007KT 9999 SCT030 BKN040 PROB30 TEMPO 1914/1918 12006KT 5000 -TSRA BKN022 FEW025CB

Weather observations and forecasts of more than 4000 airports (METAR and TAF reports).

The available stations are represented by yellow and red dots on the map.

Hover mouse over dot to see the name of the station.

Then click to see weather observations and forecasts.

To change the map : click on the green buttons with a black cross to zoom in, on the green button with a dash to zoom out, or on the green arrows for adjacent maps.


METAR-TAF: